sensor_id;sensor_type;location;lat;lon;timestamp;pressure;altitude;pressure_sealevel;temperature;humidity
28628;BME280;15815;46.760;19.604;2023-03-29T00:01:43;101158.34;;;-0.34;70.90
28628;BME280;15815;46.760;19.604;2023-03-29T00:04:11;101127.03;;;-0.52;70.84
28628;BME280;15815;46.760;19.604;2023-03-29T00:06:38;101125.97;;;-0.56;71.50
28628;BME280;15815;46.760;19.604;2023-03-29T00:09:06;101136.94;;;-0.51;70.69
28628;BME280;15815;46.760;19.604;2023-03-29T00:11:35;101130.09;;;-0.53;71.02
28628;BME280;15815;46.760;19.604;2023-03-29T00:14:00;101148.88;;;-0.42;70.94
28628;BME280;15815;46.760;19.604;2023-03-29T00:16:29;101114.03;;;-0.65;70.68
28628;BME280;15815;46.760;19.604;2023-03-29T00:18:54;101144.97;;;-0.41;70.85
28628;BME280;15815;46.760;19.604;2023-03-29T00:21:36;101166.53;;;-0.29;70.80
28628;BME280;15815;46.760;19.604;2023-03-29T00:24:02;101112.28;;;-0.61;70.68
28628;BME280;15815;46.760;19.604;2023-03-29T00:26:27;101120.19;;;-0.68;71.10
28628;BME280;15815;46.760;19.604;2023-03-29T00:28:53;101132.63;;;-0.57;70.97
28628;BME280;15815;46.760;19.604;2023-03-29T00:31:22;101110.38;;;-0.74;70.97
28628;BME280;15815;46.760;19.604;2023-03-29T00:33:53;101140.72;;;-0.60;70.72
28628;BME280;15815;46.760;19.604;2023-03-29T00:36:48;101123.56;;;-0.71;70.31
28628;BME280;15815;46.760;19.604;2023-03-29T00:39:14;101148.19;;;-0.61;70.91
28628;BME280;15815;46.760;19.604;2023-03-29T00:53:35;101129.59;;;-0.69;70.71
28628;BME280;15815;46.760;19.604;2023-03-29T00:56:06;101142.84;;;-0.57;71.07
28628;BME280;15815;46.760;19.604;2023-03-29T00:58:43;101098.41;;;-0.83;71.47
28628;BME280;15815;46.760;19.604;2023-03-29T01:01:19;101145.84;;;-0.54;71.02
28628;BME280;15815;46.760;19.604;2023-03-29T01:03:52;101116.91;;;-0.70;71.52
28628;BME280;15815;46.760;19.604;2023-03-29T01:06:23;101119.38;;;-0.69;71.08
28628;BME280;15815;46.760;19.604;2023-03-29T01:08:55;101112.53;;;-0.71;72.20
28628;BME280;15815;46.760;19.604;2023-03-29T01:11:26;101130.59;;;-0.65;71.09
28628;BME280;15815;46.760;19.604;2023-03-29T01:16:34;101080.34;;;-0.89;71.81
28628;BME280;15815;46.760;19.604;2023-03-29T01:19:00;101112.53;;;-0.71;71.08
28628;BME280;15815;46.760;19.604;2023-03-29T01:29:54;101111.00;;;-0.77;69.82
28628;BME280;15815;46.760;19.604;2023-03-29T01:32:37;101097.28;;;-0.82;70.10
28628;BME280;15815;46.760;19.604;2023-03-29T01:38:12;101084.34;;;-0.96;70.35
28628;BME280;15815;46.760;19.604;2023-03-29T01:40:48;101080.69;;;-1.05;69.87
28628;BME280;15815;46.760;19.604;2023-03-29T01:46:17;101102.84;;;-0.96;69.83
28628;BME280;15815;46.760;19.604;2023-03-29T01:48:51;101089.66;;;-0.99;70.63
28628;BME280;15815;46.760;19.604;2023-03-29T01:51:23;101101.91;;;-0.91;69.70
28628;BME280;15815;46.760;19.604;2023-03-29T01:56:21;101058.31;;;-1.17;69.38
28628;BME280;15815;46.760;19.604;2023-03-29T01:58:55;101075.78;;;-1.08;69.92
28628;BME280;15815;46.760;19.604;2023-03-29T02:01:45;101098.22;;;-0.87;69.57
28628;BME280;15815;46.760;19.604;2023-03-29T02:04:17;101086.41;;;-1.01;69.30
28628;BME280;15815;46.760;19.604;2023-03-29T02:06:45;101051.47;;;-1.19;69.42
28628;BME280;15815;46.760;19.604;2023-03-29T02:09:13;101086.59;;;-1.11;69.42
28628;BME280;15815;46.760;19.604;2023-03-29T02:11:42;101084.97;;;-1.12;69.69
28628;BME280;15815;46.760;19.604;2023-03-29T02:16:43;101102.16;;;-1.02;69.41
28628;BME280;15815;46.760;19.604;2023-03-29T02:19:09;101105.28;;;-0.95;69.30
28628;BME280;15815;46.760;19.604;2023-03-29T02:24:57;101095.19;;;-1.27;69.96
28628;BME280;15815;46.760;19.604;2023-03-29T02:27:26;101069.84;;;-1.42;69.52
28628;BME280;15815;46.760;19.604;2023-03-29T02:30:15;101126.03;;;-1.11;69.16
28628;BME280;15815;46.760;19.604;2023-03-29T02:38:38;101075.50;;;-1.34;70.44
28628;BME280;15815;46.760;19.604;2023-03-29T02:41:18;101075.50;;;-1.34;70.60
28628;BME280;15815;46.760;19.604;2023-03-29T02:46:12;101108.06;;;-1.22;70.31
28628;BME280;15815;46.760;19.604;2023-03-29T02:51:53;101110.53;;;-1.34;70.09
28628;BME280;15815;46.760;19.604;2023-03-29T02:54:27;101127.66;;;-1.37;70.65
28628;BME280;15815;46.760;19.604;2023-03-29T02:57:07;101146.19;;;-1.24;71.02
28628;BME280;15815;46.760;19.604;2023-03-29T02:59:34;101123.56;;;-1.53;70.45
28628;BME280;15815;46.760;19.604;2023-03-29T03:02:06;101098.19;;;-1.69;70.57
28628;BME280;15815;46.760;19.604;2023-03-29T03:04:45;101136.63;;;-1.45;70.25
28628;BME280;15815;46.760;19.604;2023-03-29T03:07:13;101112.09;;;-1.74;71.02
28628;BME280;15815;46.760;19.604;2023-03-29T03:09:41;101119.75;;;-1.71;70.32
28628;BME280;15815;46.760;19.604;2023-03-29T03:12:10;101146.91;;;-1.65;70.45
28628;BME280;15815;46.760;19.604;2023-03-29T03:14:38;101115.94;;;-1.89;71.72
28628;BME280;15815;46.760;19.604;2023-03-29T03:17:03;101168.09;;;-1.46;70.83
28628;BME280;15815;46.760;19.604;2023-03-29T03:19:29;101139.34;;;-1.73;70.60
28628;BME280;15815;46.760;19.604;2023-03-29T03:21:54;101133.91;;;-1.78;71.05
28628;BME280;15815;46.760;19.604;2023-03-29T03:24:20;101114.88;;;-1.93;71.09
28628;BME280;15815;46.760;19.604;2023-03-29T03:26:46;101153.22;;;-1.78;71.08
28628;BME280;15815;46.760;19.604;2023-03-29T03:29:15;101147.50;;;-2.00;71.11
28628;BME280;15815;46.760;19.604;2023-03-29T03:31:40;101162.00;;;-1.95;72.22
28628;BME280;15815;46.760;19.604;2023-03-29T03:34:06;101169.84;;;-1.83;73.09
28628;BME280;15815;46.760;19.604;2023-03-29T03:36:36;101161.25;;;-1.81;71.74
28628;BME280;15815;46.760;19.604;2023-03-29T03:39:05;101143.13;;;-2.01;72.20
28628;BME280;15815;46.760;19.604;2023-03-29T03:41:39;101168.81;;;-1.87;72.15
28628;BME280;15815;46.760;19.604;2023-03-29T03:44:05;101182.81;;;-1.83;71.96
28628;BME280;15815;46.760;19.604;2023-03-29T03:46:31;101172.53;;;-1.97;72.05
28628;BME280;15815;46.760;19.604;2023-03-29T03:48:57;101163.44;;;-1.97;72.38
28628;BME280;15815;46.760;19.604;2023-03-29T03:51:23;101160.16;;;-1.99;72.57
28628;BME280;15815;46.760;19.604;2023-03-29T03:53:57;101167.53;;;-1.95;72.39
28628;BME280;15815;46.760;19.604;2023-03-29T03:56:22;101162.00;;;-1.95;72.51
28628;BME280;15815;46.760;19.604;2023-03-29T03:58:50;101143.91;;;-2.14;72.24
28628;BME280;15815;46.760;19.604;2023-03-29T04:01:16;101130.63;;;-2.12;72.47
28628;BME280;15815;46.760;19.604;2023-03-29T04:03:43;101139.50;;;-2.15;72.27
28628;BME280;15815;46.760;19.604;2023-03-29T04:06:14;101134.59;;;-2.19;71.90
28628;BME280;15815;46.760;19.604;2023-03-29T04:08:40;101194.13;;;-1.85;72.06
28628;BME280;15815;46.760;19.604;2023-03-29T04:11:05;101194.44;;;-1.87;72.09
28628;BME280;15815;46.760;19.604;2023-03-29T04:13:31;101172.00;;;-1.99;71.62
28628;BME280;15815;46.760;19.604;2023-03-29T04:16:10;101165.69;;;-1.99;72.63
28628;BME280;15815;46.760;19.604;2023-03-29T04:18:38;101180.19;;;-1.94;72.25
28628;BME280;15815;46.760;19.604;2023-03-29T04:21:04;101153.78;;;-2.13;72.00
28628;BME280;15815;46.760;19.604;2023-03-29T04:23:34;101198.66;;;-1.75;72.41
28628;BME280;15815;46.760;19.604;2023-03-29T04:26:03;101169.56;;;-2.00;72.15
28628;BME280;15815;46.760;19.604;2023-03-29T04:28:31;101204.75;;;-1.78;72.33
28628;BME280;15815;46.760;19.604;2023-03-29T04:31:00;101212.94;;;-1.73;72.38
28628;BME280;15815;46.760;19.604;2023-03-29T04:33:26;101179.81;;;-1.87;72.20
28628;BME280;15815;46.760;19.604;2023-03-29T04:35:54;101184.13;;;-1.81;72.24
28628;BME280;15815;46.760;19.604;2023-03-29T04:38:20;101192.75;;;-1.69;72.11
28628;BME280;15815;46.760;19.604;2023-03-29T04:41:16;101192.69;;;-1.64;72.55
28628;BME280;15815;46.760;19.604;2023-03-29T04:44:04;101214.88;;;-1.41;72.23
28628;BME280;15815;46.760;19.604;2023-03-29T04:46:32;101193.44;;;-1.44;71.99
28628;BME280;15815;46.760;19.604;2023-03-29T04:49:26;101224.75;;;-1.21;72.47
28628;BME280;15815;46.760;19.604;2023-03-29T04:52:03;101202.88;;;-1.32;71.94
28628;BME280;15815;46.760;19.604;2023-03-29T04:54:51;101191.84;;;-1.18;71.62
28628;BME280;15815;46.760;19.604;2023-03-29T04:57:19;101208.31;;;-0.85;71.67
28628;BME280;15815;46.760;19.604;2023-03-29T05:02:16;101165.50;;;-0.69;71.10
28628;BME280;15815;46.760;19.604;2023-03-29T05:04:57;101165.44;;;-0.42;71.71
28628;BME280;15815;46.760;19.604;2023-03-29T05:07:32;101172.16;;;-0.20;72.07
28628;BME280;15815;46.760;19.604;2023-03-29T05:10:07;101226.94;;;0.36;72.18
28628;BME280;15815;46.760;19.604;2023-03-29T05:12:48;101205.00;;;0.62;72.26
28628;BME280;15815;46.760;19.604;2023-03-29T05:15:22;101181.91;;;0.67;71.93
28628;BME280;15815;46.760;19.604;2023-03-29T05:20:58;101194.44;;;1.04;71.87
28628;BME280;15815;46.760;19.604;2023-03-29T05:36:28;101221.13;;;2.31;69.49
28628;BME280;15815;46.760;19.604;2023-03-29T05:39:07;101223.22;;;2.60;66.32
28628;BME280;15815;46.760;19.604;2023-03-29T05:41:32;101231.69;;;2.81;65.81
28628;BME280;15815;46.760;19.604;2023-03-29T05:44:11;101199.38;;;2.67;67.87
28628;BME280;15815;46.760;19.604;2023-03-29T05:56:59;101215.81;;;6.41;66.52
28628;BME280;15815;46.760;19.604;2023-03-29T05:59:55;101216.97;;;6.96;66.97
28628;BME280;15815;46.760;19.604;2023-03-29T06:02:21;101213.63;;;6.90;66.46
28628;BME280;15815;46.760;19.604;2023-03-29T06:07:25;101243.97;;;6.48;61.91
28628;BME280;15815;46.760;19.604;2023-03-29T06:09:56;101244.88;;;6.12;59.48
28628;BME280;15815;46.760;19.604;2023-03-29T06:12:41;101223.03;;;6.70;61.16
28628;BME280;15815;46.760;19.604;2023-03-29T06:15:10;101219.16;;;6.59;64.26
28628;BME280;15815;46.760;19.604;2023-03-29T06:17:36;101238.81;;;6.78;61.67
28628;BME280;15815;46.760;19.604;2023-03-29T06:20:17;101214.31;;;5.91;60.07
28628;BME280;15815;46.760;19.604;2023-03-29T06:22:46;101237.22;;;6.09;59.14
28628;BME280;15815;46.760;19.604;2023-03-29T06:25:14;101223.31;;;6.25;60.87
28628;BME280;15815;46.760;19.604;2023-03-29T06:27:54;101244.13;;;6.39;58.55
28628;BME280;15815;46.760;19.604;2023-03-29T06:30:22;101241.16;;;6.76;61.27
28628;BME280;15815;46.760;19.604;2023-03-29T06:32:54;101252.91;;;6.54;55.31
28628;BME280;15815;46.760;19.604;2023-03-29T06:35:22;101227.81;;;6.41;58.72
28628;BME280;15815;46.760;19.604;2023-03-29T06:43:39;101251.06;;;7.96;56.96
28628;BME280;15815;46.760;19.604;2023-03-29T06:46:07;101249.00;;;8.28;57.97
28628;BME280;15815;46.760;19.604;2023-03-29T06:48:37;101253.53;;;8.71;56.92
28628;BME280;15815;46.760;19.604;2023-03-29T06:51:04;101234.66;;;8.87;57.50
28628;BME280;15815;46.760;19.604;2023-03-29T06:53:33;101219.81;;;9.06;56.84
28628;BME280;15815;46.760;19.604;2023-03-29T06:56:02;101232.06;;;9.21;55.43
28628;BME280;15815;46.760;19.604;2023-03-29T06:58:33;101276.59;;;9.91;56.81
28628;BME280;15815;46.760;19.604;2023-03-29T07:01:02;101256.53;;;9.43;56.59
28628;BME280;15815;46.760;19.604;2023-03-29T07:03:28;101259.81;;;9.95;54.74
28628;BME280;15815;46.760;19.604;2023-03-29T07:06:03;101267.31;;;9.87;49.32
28628;BME280;15815;46.760;19.604;2023-03-29T07:08:46;101239.28;;;9.90;52.14
28628;BME280;15815;46.760;19.604;2023-03-29T07:16:36;101267.84;;;9.96;53.36
28628;BME280;15815;46.760;19.604;2023-03-29T07:19:21;101290.34;;;11.16;56.29
28628;BME280;15815;46.760;19.604;2023-03-29T07:21:47;101279.94;;;12.05;59.81
28628;BME280;15815;46.760;19.604;2023-03-29T07:24:13;101258.44;;;12.41;51.30
28628;BME280;15815;46.760;19.604;2023-03-29T07:26:38;101279.50;;;12.61;50.88
28628;BME280;15815;46.760;19.604;2023-03-29T07:29:28;101253.19;;;13.55;58.62
28628;BME280;15815;46.760;19.604;2023-03-29T07:32:14;101260.06;;;13.54;49.52
28628;BME280;15815;46.760;19.604;2023-03-29T07:34:48;101266.84;;;14.52;57.45
28628;BME280;15815;46.760;19.604;2023-03-29T07:56:09;101265.28;;;15.87;39.77
28628;BME280;15815;46.760;19.604;2023-03-29T08:04:39;101297.28;;;16.32;42.62
28628;BME280;15815;46.760;19.604;2023-03-29T08:09:43;101301.31;;;15.90;45.61
28628;BME280;15815;46.760;19.604;2023-03-29T08:12:41;101300.63;;;16.24;42.29
28628;BME280;15815;46.760;19.604;2023-03-29T08:15:18;101279.88;;;16.68;44.12
28628;BME280;15815;46.760;19.604;2023-03-29T08:17:45;101268.59;;;16.98;46.13
28628;BME280;15815;46.760;19.604;2023-03-29T08:20:43;101278.41;;;17.21;39.62
28628;BME280;15815;46.760;19.604;2023-03-29T08:23:27;101265.84;;;17.18;41.64
28628;BME280;15815;46.760;19.604;2023-03-29T08:25:53;101280.06;;;17.99;45.02
28628;BME280;15815;46.760;19.604;2023-03-29T08:28:26;101257.84;;;18.37;43.16
28628;BME280;15815;46.760;19.604;2023-03-29T08:30:55;101267.75;;;18.29;40.39
28628;BME280;15815;46.760;19.604;2023-03-29T08:33:25;101285.81;;;17.42;42.27
28628;BME280;15815;46.760;19.604;2023-03-29T08:35:56;101261.16;;;17.35;44.27
28628;BME280;15815;46.760;19.604;2023-03-29T08:38:22;101283.78;;;17.42;42.31
28628;BME280;15815;46.760;19.604;2023-03-29T08:40:48;101285.75;;;17.99;40.71
28628;BME280;15815;46.760;19.604;2023-03-29T08:48:48;101289.81;;;19.80;36.18
28628;BME280;15815;46.760;19.604;2023-03-29T08:51:31;101288.19;;;20.28;32.84
28628;BME280;15815;46.760;19.604;2023-03-29T08:54:10;101278.59;;;20.51;37.07
28628;BME280;15815;46.760;19.604;2023-03-29T08:56:37;101269.50;;;20.40;40.87
28628;BME280;15815;46.760;19.604;2023-03-29T08:59:18;101240.75;;;20.76;34.92
28628;BME280;15815;46.760;19.604;2023-03-29T09:01:55;101245.97;;;20.35;31.54
28628;BME280;15815;46.760;19.604;2023-03-29T09:04:37;101234.53;;;20.93;30.91
28628;BME280;15815;46.760;19.604;2023-03-29T09:12:25;101264.31;;;20.51;30.84
28628;BME280;15815;46.760;19.604;2023-03-29T09:25:57;101217.44;;;22.17;26.73
28628;BME280;15815;46.760;19.604;2023-03-29T09:28:53;101252.28;;;22.37;27.93
28628;BME280;15815;46.760;19.604;2023-03-29T09:31:27;101236.38;;;22.36;29.87
28628;BME280;15815;46.760;19.604;2023-03-29T09:33:56;101240.09;;;22.24;26.79
28628;BME280;15815;46.760;19.604;2023-03-29T09:36:40;101230.47;;;22.52;27.01
28628;BME280;15815;46.760;19.604;2023-03-29T09:39:12;101224.69;;;22.87;28.64
28628;BME280;15815;46.760;19.604;2023-03-29T09:41:41;101223.47;;;22.97;27.64
28628;BME280;15815;46.760;19.604;2023-03-29T09:44:14;101239.66;;;23.53;27.05
28628;BME280;15815;46.760;19.604;2023-03-29T09:46:51;101208.34;;;22.31;21.75
28628;BME280;15815;46.760;19.604;2023-03-29T09:49:23;101202.44;;;21.53;24.01
28628;BME280;15815;46.760;19.604;2023-03-29T09:51:54;101215.03;;;21.55;25.74
28628;BME280;15815;46.760;19.604;2023-03-29T09:54:20;101205.00;;;21.85;26.84
28628;BME280;15815;46.760;19.604;2023-03-29T09:56:46;101225.75;;;22.59;26.32
28628;BME280;15815;46.760;19.604;2023-03-29T09:59:14;101223.88;;;21.07;24.65
28628;BME280;15815;46.760;19.604;2023-03-29T10:01:43;101220.09;;;22.11;26.34
28628;BME280;15815;46.760;19.604;2023-03-29T10:04:10;101208.63;;;21.64;24.17
28628;BME280;15815;46.760;19.604;2023-03-29T10:06:39;101215.34;;;22.52;24.87
28628;BME280;15815;46.760;19.604;2023-03-29T10:09:14;101203.53;;;22.28;23.34
28628;BME280;15815;46.760;19.604;2023-03-29T10:11:46;101216.88;;;23.09;21.53
28628;BME280;15815;46.760;19.604;2023-03-29T10:14:40;101207.94;;;23.07;21.81
28628;BME280;15815;46.760;19.604;2023-03-29T10:17:22;101180.78;;;23.80;20.29
28628;BME280;15815;46.760;19.604;2023-03-29T10:20:05;101204.38;;;23.65;21.42
28628;BME280;15815;46.760;19.604;2023-03-29T10:22:34;101191.88;;;22.44;19.97
28628;BME280;15815;46.760;19.604;2023-03-29T10:27:32;101185.91;;;23.94;23.25
28628;BME280;15815;46.760;19.604;2023-03-29T10:30:10;101196.16;;;24.31;19.57
28628;BME280;15815;46.760;19.604;2023-03-29T10:32:37;101190.34;;;24.95;22.44
28628;BME280;15815;46.760;19.604;2023-03-29T10:35:17;101175.75;;;24.39;21.80
28628;BME280;15815;46.760;19.604;2023-03-29T10:37:54;101169.34;;;24.16;21.21
28628;BME280;15815;46.760;19.604;2023-03-29T10:40:40;101178.59;;;24.11;19.60
28628;BME280;15815;46.760;19.604;2023-03-29T10:43:21;101177.47;;;25.24;21.26
28628;BME280;15815;46.760;19.604;2023-03-29T10:45:49;101159.34;;;25.66;22.21
28628;BME280;15815;46.760;19.604;2023-03-29T10:48:16;101159.50;;;24.96;21.57
28628;BME280;15815;46.760;19.604;2023-03-29T10:50:48;101155.78;;;25.14;19.92
28628;BME280;15815;46.760;19.604;2023-03-29T10:53:36;101168.53;;;24.07;17.88
28628;BME280;15815;46.760;19.604;2023-03-29T11:18:44;101142.19;;;22.38;20.38
28628;BME280;15815;46.760;19.604;2023-03-29T11:29:30;101138.28;;;21.16;23.19
28628;BME280;15815;46.760;19.604;2023-03-29T11:32:13;101142.16;;;21.22;22.13
28628;BME280;15815;46.760;19.604;2023-03-29T11:35:28;101134.59;;;20.77;23.68
28628;BME280;15815;46.760;19.604;2023-03-29T11:38:13;101135.66;;;20.42;23.97
28628;BME280;15815;46.760;19.604;2023-03-29T11:41:00;101125.97;;;19.32;23.24
28628;BME280;15815;46.760;19.604;2023-03-29T11:48:51;101130.88;;;18.79;24.74
28628;BME280;15815;46.760;19.604;2023-03-29T11:51:23;101117.44;;;18.80;25.94
28628;BME280;15815;46.760;19.604;2023-03-29T11:56:24;101127.84;;;18.70;27.00
28628;BME280;15815;46.760;19.604;2023-03-29T11:58:56;101106.75;;;18.48;25.98
28628;BME280;15815;46.760;19.604;2023-03-29T12:01:41;101114.78;;;18.33;25.35
28628;BME280;15815;46.760;19.604;2023-03-29T12:04:15;101108.53;;;18.22;26.53
28628;BME280;15815;46.760;19.604;2023-03-29T12:06:44;101113.94;;;18.16;27.85
28628;BME280;15815;46.760;19.604;2023-03-29T12:09:22;101113.63;;;18.31;27.56
28628;BME280;15815;46.760;19.604;2023-03-29T12:12:00;101109.47;;;17.96;26.83
28628;BME280;15815;46.760;19.604;2023-03-29T12:17:23;101104.50;;;17.33;28.33
28628;BME280;15815;46.760;19.604;2023-03-29T12:22:17;101065.81;;;17.16;28.44
28628;BME280;15815;46.760;19.604;2023-03-29T12:24:43;101101.53;;;17.17;28.65
28628;BME280;15815;46.760;19.604;2023-03-29T12:31:23;101078.81;;;16.63;28.37
28628;BME280;15815;46.760;19.604;2023-03-29T12:39:30;101063.84;;;17.13;29.45
28628;BME280;15815;46.760;19.604;2023-03-29T12:42:15;101082.31;;;17.48;28.58
28628;BME280;15815;46.760;19.604;2023-03-29T12:44:48;101075.00;;;17.27;29.79
28628;BME280;15815;46.760;19.604;2023-03-29T12:47:22;101075.09;;;17.20;30.25
28628;BME280;15815;46.760;19.604;2023-03-29T12:49:59;101072.25;;;17.20;30.33
28628;BME280;15815;46.760;19.604;2023-03-29T12:52:35;101025.41;;;16.27;28.79
28628;BME280;15815;46.760;19.604;2023-03-29T12:55:16;101027.56;;;16.47;30.29
28628;BME280;15815;46.760;19.604;2023-03-29T12:57:59;101044.53;;;16.50;30.07
28628;BME280;15815;46.760;19.604;2023-03-29T13:00:33;101070.34;;;16.59;30.94
28628;BME280;15815;46.760;19.604;2023-03-29T13:06:10;101067.97;;;16.27;31.21
28628;BME280;15815;46.760;19.604;2023-03-29T13:08:42;101066.66;;;16.01;30.33
28628;BME280;15815;46.760;19.604;2023-03-29T13:13:54;101057.69;;;16.06;31.27
28628;BME280;15815;46.760;19.604;2023-03-29T13:16:36;101052.06;;;16.03;32.50
28628;BME280;15815;46.760;19.604;2023-03-29T13:22:07;101023.81;;;15.96;31.54
28628;BME280;15815;46.760;19.604;2023-03-29T13:30:01;101042.19;;;15.43;31.84
28628;BME280;15815;46.760;19.604;2023-03-29T13:38:26;101025.88;;;15.54;33.06
28628;BME280;15815;46.760;19.604;2023-03-29T13:46:04;101029.59;;;15.10;33.22
28628;BME280;15815;46.760;19.604;2023-03-29T13:51:27;101003.84;;;14.94;31.89
28628;BME280;15815;46.760;19.604;2023-03-29T13:54:23;101008.56;;;15.07;33.60
28628;BME280;15815;46.760;19.604;2023-03-29T13:57:04;100987.88;;;14.69;32.65
28628;BME280;15815;46.760;19.604;2023-03-29T13:59:39;100983.16;;;14.48;32.53
28628;BME280;15815;46.760;19.604;2023-03-29T14:02:15;100994.31;;;14.70;31.79
28628;BME280;15815;46.760;19.604;2023-03-29T14:04:45;100963.00;;;14.39;31.86
28628;BME280;15815;46.760;19.604;2023-03-29T14:07:13;100991.91;;;14.68;32.66
28628;BME280;15815;46.760;19.604;2023-03-29T14:09:43;100994.53;;;14.93;32.11
28628;BME280;15815;46.760;19.604;2023-03-29T14:12:12;100992.22;;;14.77;33.93
28628;BME280;15815;46.760;19.604;2023-03-29T14:14:42;100970.16;;;14.62;32.24
28628;BME280;15815;46.760;19.604;2023-03-29T14:17:19;100970.00;;;14.76;33.27
28628;BME280;15815;46.760;19.604;2023-03-29T14:19:52;100950.53;;;14.33;33.07
28628;BME280;15815;46.760;19.604;2023-03-29T14:25:20;100959.06;;;14.30;32.07
28628;BME280;15815;46.760;19.604;2023-03-29T14:27:46;100982.91;;;14.25;33.45
28628;BME280;15815;46.760;19.604;2023-03-29T14:33:30;100942.84;;;13.64;32.57
28628;BME280;15815;46.760;19.604;2023-03-29T14:35:59;100946.47;;;13.68;33.38
28628;BME280;15815;46.760;19.604;2023-03-29T14:38:26;100978.56;;;14.10;33.98
28628;BME280;15815;46.760;19.604;2023-03-29T14:41:00;100950.38;;;13.99;32.94
28628;BME280;15815;46.760;19.604;2023-03-29T14:43:30;100944.72;;;13.92;33.25
28628;BME280;15815;46.760;19.604;2023-03-29T14:46:01;100946.41;;;13.82;33.77
28628;BME280;15815;46.760;19.604;2023-03-29T14:48:31;100971.94;;;14.34;34.92
28628;BME280;15815;46.760;19.604;2023-03-29T14:51:04;100940.50;;;14.21;34.66
28628;BME280;15815;46.760;19.604;2023-03-29T14:53:35;100929.28;;;14.11;33.15
28628;BME280;15815;46.760;19.604;2023-03-29T14:56:01;100961.56;;;14.13;33.79
28628;BME280;15815;46.760;19.604;2023-03-29T14:58:34;100974.34;;;14.36;33.92
28628;BME280;15815;46.760;19.604;2023-03-29T15:01:19;100958.28;;;14.26;34.16
28628;BME280;15815;46.760;19.604;2023-03-29T15:04:08;100953.84;;;14.21;34.27
28628;BME280;15815;46.760;19.604;2023-03-29T15:06:48;100964.00;;;14.11;33.23
28628;BME280;15815;46.760;19.604;2023-03-29T15:09:19;100949.53;;;14.02;34.22
28628;BME280;15815;46.760;19.604;2023-03-29T15:12:12;100936.72;;;13.80;34.09
28628;BME280;15815;46.760;19.604;2023-03-29T15:14:40;100945.97;;;13.87;35.30
28628;BME280;15815;46.760;19.604;2023-03-29T15:22:38;100944.97;;;14.19;35.03
28628;BME280;15815;46.760;19.604;2023-03-29T15:25:16;100933.00;;;13.93;35.93
28628;BME280;15815;46.760;19.604;2023-03-29T15:31:19;100957.59;;;14.04;36.12
28628;BME280;15815;46.760;19.604;2023-03-29T15:33:45;100907.75;;;13.65;36.17
28628;BME280;15815;46.760;19.604;2023-03-29T15:45:02;100914.34;;;13.34;36.58
28628;BME280;15815;46.760;19.604;2023-03-29T15:52:33;100951.03;;;13.44;37.41
28628;BME280;15815;46.760;19.604;2023-03-29T15:55:20;100932.91;;;13.27;36.48
28628;BME280;15815;46.760;19.604;2023-03-29T15:57:52;100923.22;;;13.14;37.51
28628;BME280;15815;46.760;19.604;2023-03-29T16:00:19;100920.03;;;13.05;37.78
28628;BME280;15815;46.760;19.604;2023-03-29T16:05:25;100951.47;;;13.07;37.69
28628;BME280;15815;46.760;19.604;2023-03-29T16:10:51;100951.13;;;12.91;38.30
28628;BME280;15815;46.760;19.604;2023-03-29T16:15:54;100935.81;;;12.71;38.60
28628;BME280;15815;46.760;19.604;2023-03-29T16:18:23;100949.91;;;12.78;39.42
28628;BME280;15815;46.760;19.604;2023-03-29T16:20:51;100917.69;;;12.47;38.92
28628;BME280;15815;46.760;19.604;2023-03-29T16:23:16;100925.34;;;12.57;38.88
28628;BME280;15815;46.760;19.604;2023-03-29T16:25:42;100922.53;;;12.25;38.95
28628;BME280;15815;46.760;19.604;2023-03-29T16:28:08;100904.00;;;12.24;39.52
28628;BME280;15815;46.760;19.604;2023-03-29T16:30:35;100918.91;;;12.35;38.86
28628;BME280;15815;46.760;19.604;2023-03-29T16:33:02;100915.28;;;12.24;39.12
28628;BME280;15815;46.760;19.604;2023-03-29T16:35:31;100911.25;;;12.25;39.82
28628;BME280;15815;46.760;19.604;2023-03-29T16:38:00;100901.59;;;12.15;39.78
28628;BME280;15815;46.760;19.604;2023-03-29T16:40:26;100893.91;;;11.94;39.73
28628;BME280;15815;46.760;19.604;2023-03-29T16:42:52;100900.75;;;12.00;39.97
28628;BME280;15815;46.760;19.604;2023-03-29T16:45:18;100908.00;;;11.94;39.93
28628;BME280;15815;46.760;19.604;2023-03-29T16:47:46;100906.38;;;11.86;40.03
28628;BME280;15815;46.760;19.604;2023-03-29T16:50:16;100920.03;;;11.81;39.66
28628;BME280;15815;46.760;19.604;2023-03-29T16:52:42;100890.97;;;11.52;40.42
28628;BME280;15815;46.760;19.604;2023-03-29T16:55:09;100921.56;;;11.60;40.66
28628;BME280;15815;46.760;19.604;2023-03-29T16:57:43;100891.31;;;11.36;40.88
28628;BME280;15815;46.760;19.604;2023-03-29T17:00:13;100896.50;;;11.27;41.12
28628;BME280;15815;46.760;19.604;2023-03-29T17:02:42;100902.84;;;11.13;40.88
28628;BME280;15815;46.760;19.604;2023-03-29T17:05:11;100908.06;;;11.07;41.13
28628;BME280;15815;46.760;19.604;2023-03-29T17:07:37;100917.66;;;11.03;41.42
28628;BME280;15815;46.760;19.604;2023-03-29T17:10:05;100909.88;;;10.78;41.79
28628;BME280;15815;46.760;19.604;2023-03-29T17:12:30;100921.59;;;10.88;41.64
28628;BME280;15815;46.760;19.604;2023-03-29T17:14:56;100924.41;;;10.91;41.55
28628;BME280;15815;46.760;19.604;2023-03-29T17:17:23;100916.31;;;10.79;41.94
28628;BME280;15815;46.760;19.604;2023-03-29T17:19:48;100923.56;;;10.80;42.28
28628;BME280;15815;46.760;19.604;2023-03-29T17:22:14;100919.88;;;10.72;41.71
28628;BME280;15815;46.760;19.604;2023-03-29T17:24:40;100910.56;;;10.61;41.66
28628;BME280;15815;46.760;19.604;2023-03-29T17:30:09;100910.03;;;10.41;41.83
28628;BME280;15815;46.760;19.604;2023-03-29T17:32:35;100917.56;;;10.34;42.65